sensor_id;sensor_type;location;lat;lon;timestamp;pressure;altitude;pressure_sealevel;temperature;humidity
16525;BME280;8375;33.594;-117.718;2022-09-03T00:00:32;99461.53;;;36.54;27.44
16525;BME280;8375;33.594;-117.718;2022-09-03T00:03:05;99457.09;;;36.59;26.96
16525;BME280;8375;33.594;-117.718;2022-09-03T00:05:38;99456.44;;;36.53;27.51
16525;BME280;8375;33.594;-117.718;2022-09-03T00:08:12;99459.81;;;36.59;27.66
16525;BME280;8375;33.594;-117.718;2022-09-03T00:10:47;99466.38;;;36.44;27.55
16525;BME280;8375;33.594;-117.718;2022-09-03T00:13:22;99472.41;;;36.18;28.37
16525;BME280;8375;33.594;-117.718;2022-09-03T00:15:54;99468.13;;;36.17;28.34
16525;BME280;8375;33.594;-117.718;2022-09-03T00:18:30;99465.00;;;36.23;28.18
16525;BME280;8375;33.594;-117.718;2022-09-03T00:21:03;99467.22;;;36.21;28.65
16525;BME280;8375;33.594;-117.718;2022-09-03T00:23:38;99459.03;;;36.12;28.76
16525;BME280;8375;33.594;-117.718;2022-09-03T00:26:17;99462.13;;;35.60;29.65
16525;BME280;8375;33.594;-117.718;2022-09-03T00:28:54;99465.13;;;35.59;29.89
16525;BME280;8375;33.594;-117.718;2022-09-03T00:31:29;99462.84;;;35.52;30.50
16525;BME280;8375;33.594;-117.718;2022-09-03T00:34:06;99463.47;;;35.07;30.82
16525;BME280;8375;33.594;-117.718;2022-09-03T00:36:40;99466.03;;;34.37;32.16
16525;BME280;8375;33.594;-117.718;2022-09-03T00:39:10;99466.19;;;33.93;32.81
16525;BME280;8375;33.594;-117.718;2022-09-03T00:41:47;99472.44;;;33.89;33.36
16525;BME280;8375;33.594;-117.718;2022-09-03T00:44:34;99470.19;;;33.96;33.36
16525;BME280;8375;33.594;-117.718;2022-09-03T00:47:11;99470.03;;;34.06;33.33
16525;BME280;8375;33.594;-117.718;2022-09-03T00:49:51;99473.84;;;34.19;33.08
16525;BME280;8375;33.594;-117.718;2022-09-03T00:52:36;99467.88;;;34.22;33.60
16525;BME280;8375;33.594;-117.718;2022-09-03T00:55:14;99473.50;;;34.26;33.45
16525;BME280;8375;33.594;-117.718;2022-09-03T00:57:55;99487.31;;;34.19;33.25
16525;BME280;8375;33.594;-117.718;2022-09-03T01:00:29;99500.94;;;34.09;33.65
16525;BME280;8375;33.594;-117.718;2022-09-03T01:03:05;99494.22;;;33.87;34.68
16525;BME280;8375;33.594;-117.718;2022-09-03T01:05:50;99496.22;;;33.38;35.77
16525;BME280;8375;33.594;-117.718;2022-09-03T01:08:34;99500.41;;;33.49;34.94
16525;BME280;8375;33.594;-117.718;2022-09-03T01:11:15;99505.22;;;33.53;35.56
16525;BME280;8375;33.594;-117.718;2022-09-03T01:13:49;99503.03;;;33.74;35.35
16525;BME280;8375;33.594;-117.718;2022-09-03T01:16:31;99506.41;;;33.85;34.93
16525;BME280;8375;33.594;-117.718;2022-09-03T01:19:10;99503.69;;;33.65;35.13
16525;BME280;8375;33.594;-117.718;2022-09-03T01:22:03;99508.28;;;32.92;35.54
16525;BME280;8375;33.594;-117.718;2022-09-03T01:25:06;99510.41;;;32.26;37.92
16525;BME280;8375;33.594;-117.718;2022-09-03T01:30:25;99519.19;;;31.31;41.08
16525;BME280;8375;33.594;-117.718;2022-09-03T01:33:00;99523.28;;;30.82;42.55
16525;BME280;8375;33.594;-117.718;2022-09-03T01:35:37;99532.63;;;30.33;44.48
16525;BME280;8375;33.594;-117.718;2022-09-03T01:38:17;99531.16;;;29.89;46.12
16525;BME280;8375;33.594;-117.718;2022-09-03T01:40:56;99528.13;;;29.64;48.43
16525;BME280;8375;33.594;-117.718;2022-09-03T01:43:58;99527.44;;;29.95;47.15
16525;BME280;8375;33.594;-117.718;2022-09-03T01:46:34;99535.25;;;30.17;48.63
16525;BME280;8375;33.594;-117.718;2022-09-03T01:49:11;99537.22;;;29.63;52.38
16525;BME280;8375;33.594;-117.718;2022-09-03T01:51:43;99542.47;;;29.42;53.17
16525;BME280;8375;33.594;-117.718;2022-09-03T01:54:43;99541.22;;;29.55;52.94
16525;BME280;8375;33.594;-117.718;2022-09-03T01:57:40;99542.06;;;29.71;51.05
16525;BME280;8375;33.594;-117.718;2022-09-03T02:00:13;99546.38;;;29.78;50.98
16525;BME280;8375;33.594;-117.718;2022-09-03T02:02:49;99562.88;;;29.59;51.22
16525;BME280;8375;33.594;-117.718;2022-09-03T02:05:21;99558.53;;;29.48;51.52
16525;BME280;8375;33.594;-117.718;2022-09-03T02:07:59;99576.47;;;29.52;52.22
16525;BME280;8375;33.594;-117.718;2022-09-03T02:10:36;99583.19;;;29.60;52.38
16525;BME280;8375;33.594;-117.718;2022-09-03T02:13:08;99595.50;;;29.61;52.44
16525;BME280;8375;33.594;-117.718;2022-09-03T02:15:40;99595.22;;;29.58;53.10
16525;BME280;8375;33.594;-117.718;2022-09-03T02:18:19;99598.13;;;29.51;53.87
16525;BME280;8375;33.594;-117.718;2022-09-03T02:20:53;99594.88;;;29.44;54.26
16525;BME280;8375;33.594;-117.718;2022-09-03T02:23:27;99590.53;;;29.37;54.25
16525;BME280;8375;33.594;-117.718;2022-09-03T02:26:00;99580.31;;;29.29;54.90
16525;BME280;8375;33.594;-117.718;2022-09-03T02:28:31;99576.84;;;29.28;54.76
16525;BME280;8375;33.594;-117.718;2022-09-03T02:31:00;99578.13;;;29.21;55.48
16525;BME280;8375;33.594;-117.718;2022-09-03T02:33:35;99585.53;;;29.08;55.60
16525;BME280;8375;33.594;-117.718;2022-09-03T02:36:08;99586.00;;;29.00;56.11
16525;BME280;8375;33.594;-117.718;2022-09-03T02:38:40;99590.19;;;28.91;56.40
16525;BME280;8375;33.594;-117.718;2022-09-03T02:41:11;99592.88;;;28.91;56.23
16525;BME280;8375;33.594;-117.718;2022-09-03T02:43:46;99588.50;;;28.79;55.73
16525;BME280;8375;33.594;-117.718;2022-09-03T02:46:21;99597.00;;;28.76;55.58
16525;BME280;8375;33.594;-117.718;2022-09-03T02:48:54;99595.56;;;28.68;55.84
16525;BME280;8375;33.594;-117.718;2022-09-03T02:51:22;99590.19;;;28.63;55.78
16525;BME280;8375;33.594;-117.718;2022-09-03T02:53:53;99590.81;;;28.43;56.63
16525;BME280;8375;33.594;-117.718;2022-09-03T02:56:24;99605.91;;;28.10;57.45
16525;BME280;8375;33.594;-117.718;2022-09-03T02:58:55;99619.91;;;27.78;58.62
16525;BME280;8375;33.594;-117.718;2022-09-03T03:01:25;99614.47;;;27.33;59.94
16525;BME280;8375;33.594;-117.718;2022-09-03T03:03:58;99624.22;;;27.28;60.75
16525;BME280;8375;33.594;-117.718;2022-09-03T03:06:27;99627.97;;;27.09;60.79
16525;BME280;8375;33.594;-117.718;2022-09-03T03:08:58;99629.56;;;26.93;61.78
16525;BME280;8375;33.594;-117.718;2022-09-03T03:11:30;99644.56;;;26.83;61.89
16525;BME280;8375;33.594;-117.718;2022-09-03T03:14:01;99640.38;;;26.75;61.92
16525;BME280;8375;33.594;-117.718;2022-09-03T03:16:33;99642.47;;;26.73;61.82
16525;BME280;8375;33.594;-117.718;2022-09-03T03:19:05;99643.69;;;26.65;62.83
16525;BME280;8375;33.594;-117.718;2022-09-03T03:21:35;99646.81;;;26.62;64.02
16525;BME280;8375;33.594;-117.718;2022-09-03T03:24:05;99657.13;;;26.58;64.38
16525;BME280;8375;33.594;-117.718;2022-09-03T03:26:35;99660.03;;;26.57;64.66
16525;BME280;8375;33.594;-117.718;2022-09-03T03:29:04;99649.88;;;26.54;64.88
16525;BME280;8375;33.594;-117.718;2022-09-03T03:31:34;99665.25;;;26.52;65.01
16525;BME280;8375;33.594;-117.718;2022-09-03T03:34:06;99676.94;;;26.50;65.90
16525;BME280;8375;33.594;-117.718;2022-09-03T03:36:36;99685.38;;;26.47;66.35
16525;BME280;8375;33.594;-117.718;2022-09-03T03:39:05;99691.06;;;26.39;66.77
16525;BME280;8375;33.594;-117.718;2022-09-03T03:41:35;99686.56;;;26.28;67.79
16525;BME280;8375;33.594;-117.718;2022-09-03T03:44:08;99690.06;;;26.28;67.54
16525;BME280;8375;33.594;-117.718;2022-09-03T03:46:39;99697.22;;;26.28;67.10
16525;BME280;8375;33.594;-117.718;2022-09-03T03:49:11;99692.94;;;26.27;65.83
16525;BME280;8375;33.594;-117.718;2022-09-03T03:51:42;99695.50;;;26.21;65.99
16525;BME280;8375;33.594;-117.718;2022-09-03T03:54:23;99706.72;;;26.12;65.83
16525;BME280;8375;33.594;-117.718;2022-09-03T03:56:53;99711.19;;;26.11;65.89
16525;BME280;8375;33.594;-117.718;2022-09-03T03:59:23;99704.28;;;26.10;65.88
16525;BME280;8375;33.594;-117.718;2022-09-03T04:01:55;99707.63;;;26.05;66.24
16525;BME280;8375;33.594;-117.718;2022-09-03T04:04:32;99722.41;;;26.13;65.82
16525;BME280;8375;33.594;-117.718;2022-09-03T04:07:03;99732.03;;;26.14;65.53
16525;BME280;8375;33.594;-117.718;2022-09-03T04:09:34;99729.50;;;26.07;66.38
16525;BME280;8375;33.594;-117.718;2022-09-03T04:12:04;99733.41;;;26.05;66.48
16525;BME280;8375;33.594;-117.718;2022-09-03T04:14:34;99728.22;;;25.98;66.72
16525;BME280;8375;33.594;-117.718;2022-09-03T04:17:05;99728.91;;;26.17;66.10
16525;BME280;8375;33.594;-117.718;2022-09-03T04:19:37;99727.50;;;26.39;65.84
16525;BME280;8375;33.594;-117.718;2022-09-03T04:22:09;99735.34;;;26.57;65.23
16525;BME280;8375;33.594;-117.718;2022-09-03T04:24:41;99745.97;;;26.69;64.88
16525;BME280;8375;33.594;-117.718;2022-09-03T04:27:14;99738.56;;;26.71;64.79
16525;BME280;8375;33.594;-117.718;2022-09-03T04:29:43;99753.00;;;26.75;63.85
16525;BME280;8375;33.594;-117.718;2022-09-03T04:32:12;99748.94;;;26.85;62.98
16525;BME280;8375;33.594;-117.718;2022-09-03T04:35:01;99753.91;;;26.93;62.73
16525;BME280;8375;33.594;-117.718;2022-09-03T04:37:30;99756.31;;;26.94;62.59
16525;BME280;8375;33.594;-117.718;2022-09-03T04:39:59;99761.16;;;26.98;62.37
16525;BME280;8375;33.594;-117.718;2022-09-03T04:42:30;99761.72;;;27.00;62.45
16525;BME280;8375;33.594;-117.718;2022-09-03T04:45:03;99760.84;;;26.94;62.79
16525;BME280;8375;33.594;-117.718;2022-09-03T04:47:36;99764.53;;;26.93;63.18
16525;BME280;8375;33.594;-117.718;2022-09-03T04:50:08;99758.31;;;26.87;63.45
16525;BME280;8375;33.594;-117.718;2022-09-03T04:52:39;99759.03;;;26.83;63.22
16525;BME280;8375;33.594;-117.718;2022-09-03T04:55:08;99762.50;;;26.71;63.65
16525;BME280;8375;33.594;-117.718;2022-09-03T04:57:39;99757.19;;;26.59;64.12
16525;BME280;8375;33.594;-117.718;2022-09-03T05:00:11;99758.63;;;26.38;64.95
16525;BME280;8375;33.594;-117.718;2022-09-03T05:02:45;99761.41;;;26.19;65.26
16525;BME280;8375;33.594;-117.718;2022-09-03T05:05:16;99767.03;;;26.11;65.83
16525;BME280;8375;33.594;-117.718;2022-09-03T05:07:47;99768.56;;;25.95;66.32
16525;BME280;8375;33.594;-117.718;2022-09-03T05:10:15;99770.28;;;25.89;66.73
16525;BME280;8375;33.594;-117.718;2022-09-03T05:12:46;99765.88;;;25.83;66.91
16525;BME280;8375;33.594;-117.718;2022-09-03T05:15:15;99762.53;;;25.76;67.91
16525;BME280;8375;33.594;-117.718;2022-09-03T05:17:44;99755.47;;;25.70;67.85
16525;BME280;8375;33.594;-117.718;2022-09-03T05:20:13;99757.31;;;25.69;67.82
16525;BME280;8375;33.594;-117.718;2022-09-03T05:22:43;99761.81;;;25.69;68.07
16525;BME280;8375;33.594;-117.718;2022-09-03T05:25:12;99766.78;;;25.65;67.93
16525;BME280;8375;33.594;-117.718;2022-09-03T05:27:40;99763.44;;;25.58;68.33
16525;BME280;8375;33.594;-117.718;2022-09-03T05:30:10;99769.06;;;25.50;69.08
16525;BME280;8375;33.594;-117.718;2022-09-03T05:32:38;99779.41;;;25.39;69.78
16525;BME280;8375;33.594;-117.718;2022-09-03T05:35:08;99784.34;;;25.36;70.24
16525;BME280;8375;33.594;-117.718;2022-09-03T05:37:37;99789.91;;;25.34;70.52
16525;BME280;8375;33.594;-117.718;2022-09-03T05:40:08;99785.50;;;25.28;70.63
16525;BME280;8375;33.594;-117.718;2022-09-03T05:42:37;99797.94;;;25.27;70.20
16525;BME280;8375;33.594;-117.718;2022-09-03T05:45:08;99789.06;;;25.22;70.41
16525;BME280;8375;33.594;-117.718;2022-09-03T05:47:37;99779.09;;;25.17;70.49
16525;BME280;8375;33.594;-117.718;2022-09-03T05:50:07;99782.19;;;25.14;70.53
16525;BME280;8375;33.594;-117.718;2022-09-03T05:52:36;99767.09;;;25.14;70.76
16525;BME280;8375;33.594;-117.718;2022-09-03T05:55:07;99782.00;;;25.15;70.90
16525;BME280;8375;33.594;-117.718;2022-09-03T05:57:36;99795.72;;;25.12;71.36
16525;BME280;8375;33.594;-117.718;2022-09-03T06:00:07;99811.72;;;25.05;71.92
16525;BME280;8375;33.594;-117.718;2022-09-03T06:02:36;99820.94;;;25.03;71.88
16525;BME280;8375;33.594;-117.718;2022-09-03T06:05:05;99821.59;;;24.98;72.25
16525;BME280;8375;33.594;-117.718;2022-09-03T06:07:33;99800.81;;;24.95;72.04
16525;BME280;8375;33.594;-117.718;2022-09-03T06:10:02;99794.72;;;24.95;72.44
16525;BME280;8375;33.594;-117.718;2022-09-03T06:12:34;99776.56;;;24.92;72.08
16525;BME280;8375;33.594;-117.718;2022-09-03T06:15:03;99780.13;;;24.85;72.98
16525;BME280;8375;33.594;-117.718;2022-09-03T06:17:32;99772.38;;;24.84;72.93
16525;BME280;8375;33.594;-117.718;2022-09-03T06:20:01;99786.81;;;24.88;72.60
16525;BME280;8375;33.594;-117.718;2022-09-03T06:22:30;99787.25;;;24.85;73.09
16525;BME280;8375;33.594;-117.718;2022-09-03T06:24:58;99791.78;;;24.84;73.33
16525;BME280;8375;33.594;-117.718;2022-09-03T06:27:28;99791.91;;;24.71;74.18
16525;BME280;8375;33.594;-117.718;2022-09-03T06:29:58;99786.78;;;24.69;73.70
16525;BME280;8375;33.594;-117.718;2022-09-03T06:32:27;99791.06;;;24.70;73.64
16525;BME280;8375;33.594;-117.718;2022-09-03T06:34:55;99795.31;;;24.78;74.50
16525;BME280;8375;33.594;-117.718;2022-09-03T06:37:24;99796.03;;;25.04;74.13
16525;BME280;8375;33.594;-117.718;2022-09-03T06:39:52;99797.94;;;25.27;73.84
16525;BME280;8375;33.594;-117.718;2022-09-03T06:42:21;99788.72;;;25.48;71.73
16525;BME280;8375;33.594;-117.718;2022-09-03T06:44:50;99788.91;;;25.47;71.53
16525;BME280;8375;33.594;-117.718;2022-09-03T06:47:20;99798.34;;;25.43;71.27
16525;BME280;8375;33.594;-117.718;2022-09-03T06:49:48;99795.41;;;25.51;70.22
16525;BME280;8375;33.594;-117.718;2022-09-03T06:52:17;99803.16;;;25.53;69.79
16525;BME280;8375;33.594;-117.718;2022-09-03T06:54:45;99804.19;;;25.52;70.04
16525;BME280;8375;33.594;-117.718;2022-09-03T06:57:14;99814.81;;;25.52;69.76
16525;BME280;8375;33.594;-117.718;2022-09-03T06:59:43;99808.69;;;25.51;70.71
16525;BME280;8375;33.594;-117.718;2022-09-03T07:02:11;99810.31;;;25.52;70.10
16525;BME280;8375;33.594;-117.718;2022-09-03T07:04:41;99800.84;;;25.56;69.66
16525;BME280;8375;33.594;-117.718;2022-09-03T07:07:10;99798.66;;;25.53;70.61
16525;BME280;8375;33.594;-117.718;2022-09-03T07:09:39;99788.03;;;25.34;71.42
16525;BME280;8375;33.594;-117.718;2022-09-03T07:12:08;99796.19;;;25.21;72.00
16525;BME280;8375;33.594;-117.718;2022-09-03T07:14:37;99796.22;;;25.02;73.01
16525;BME280;8375;33.594;-117.718;2022-09-03T07:17:06;99797.25;;;25.01;73.02
16525;BME280;8375;33.594;-117.718;2022-09-03T07:19:34;99792.94;;;24.88;73.59
16525;BME280;8375;33.594;-117.718;2022-09-03T07:22:04;99797.59;;;24.74;74.82
16525;BME280;8375;33.594;-117.718;2022-09-03T07:24:33;99801.09;;;24.68;74.50
16525;BME280;8375;33.594;-117.718;2022-09-03T07:27:03;99798.72;;;24.60;74.91
16525;BME280;8375;33.594;-117.718;2022-09-03T07:29:32;99812.88;;;24.54;75.42
16525;BME280;8375;33.594;-117.718;2022-09-03T07:32:01;99812.44;;;24.57;75.68
16525;BME280;8375;33.594;-117.718;2022-09-03T07:34:29;99813.31;;;24.51;75.55
16525;BME280;8375;33.594;-117.718;2022-09-03T07:37:01;99812.81;;;24.42;75.80
16525;BME280;8375;33.594;-117.718;2022-09-03T07:39:32;99809.31;;;24.41;75.86
16525;BME280;8375;33.594;-117.718;2022-09-03T07:42:01;99790.69;;;24.29;77.28
16525;BME280;8375;33.594;-117.718;2022-09-03T07:44:29;99782.78;;;24.23;77.45
16525;BME280;8375;33.594;-117.718;2022-09-03T07:46:58;99782.00;;;24.22;77.45
16525;BME280;8375;33.594;-117.718;2022-09-03T07:49:26;99788.09;;;24.23;77.51
16525;BME280;8375;33.594;-117.718;2022-09-03T07:51:55;99791.41;;;24.18;78.24
16525;BME280;8375;33.594;-117.718;2022-09-03T07:54:23;99796.28;;;24.21;77.87
16525;BME280;8375;33.594;-117.718;2022-09-03T07:56:54;99802.59;;;24.20;77.51
16525;BME280;8375;33.594;-117.718;2022-09-03T07:59:22;99808.19;;;24.12;79.01
16525;BME280;8375;33.594;-117.718;2022-09-03T08:01:51;99812.66;;;24.11;78.47
16525;BME280;8375;33.594;-117.718;2022-09-03T08:04:20;99814.72;;;24.09;78.50
16525;BME280;8375;33.594;-117.718;2022-09-03T08:06:49;99817.38;;;24.09;78.71
16525;BME280;8375;33.594;-117.718;2022-09-03T08:09:20;99801.69;;;24.08;78.40
16525;BME280;8375;33.594;-117.718;2022-09-03T08:11:49;99793.50;;;24.09;78.81
16525;BME280;8375;33.594;-117.718;2022-09-03T08:14:19;99785.41;;;24.04;78.86
16525;BME280;8375;33.594;-117.718;2022-09-03T08:16:48;99785.19;;;24.06;78.63
16525;BME280;8375;33.594;-117.718;2022-09-03T08:19:17;99768.47;;;24.05;78.91
16525;BME280;8375;33.594;-117.718;2022-09-03T08:21:46;99766.66;;;23.99;80.13
16525;BME280;8375;33.594;-117.718;2022-09-03T08:24:16;99776.94;;;23.88;80.50
16525;BME280;8375;33.594;-117.718;2022-09-03T08:26:46;99778.56;;;23.90;80.60
16525;BME280;8375;33.594;-117.718;2022-09-03T08:29:15;99783.22;;;23.94;80.04
16525;BME280;8375;33.594;-117.718;2022-09-03T08:31:45;99788.22;;;23.77;81.23
16525;BME280;8375;33.594;-117.718;2022-09-03T08:34:14;99798.09;;;23.63;81.49
16525;BME280;8375;33.594;-117.718;2022-09-03T08:36:43;99792.78;;;23.63;82.15
16525;BME280;8375;33.594;-117.718;2022-09-03T08:39:12;99779.13;;;23.66;80.69
16525;BME280;8375;33.594;-117.718;2022-09-03T08:42:11;99774.00;;;23.71;80.86
16525;BME280;8375;33.594;-117.718;2022-09-03T08:44:45;99782.09;;;23.77;80.87
16525;BME280;8375;33.594;-117.718;2022-09-03T08:47:20;99789.69;;;23.73;80.98
16525;BME280;8375;33.594;-117.718;2022-09-03T08:49:53;99787.03;;;23.73;81.07
16525;BME280;8375;33.594;-117.718;2022-09-03T08:52:28;99782.09;;;23.77;80.57
16525;BME280;8375;33.594;-117.718;2022-09-03T08:55:03;99772.94;;;23.79;80.74
16525;BME280;8375;33.594;-117.718;2022-09-03T08:57:40;99771.31;;;23.78;80.30
16525;BME280;8375;33.594;-117.718;2022-09-03T09:00:11;99775.94;;;23.83;79.47
16525;BME280;8375;33.594;-117.718;2022-09-03T09:02:52;99778.41;;;23.84;79.49
16525;BME280;8375;33.594;-117.718;2022-09-03T09:05:27;99783.13;;;23.76;80.21
16525;BME280;8375;33.594;-117.718;2022-09-03T09:08:04;99794.81;;;23.68;80.93
16525;BME280;8375;33.594;-117.718;2022-09-03T09:10:42;99775.91;;;23.90;80.48
16525;BME280;8375;33.594;-117.718;2022-09-03T09:13:20;99760.50;;;24.05;78.67
16525;BME280;8375;33.594;-117.718;2022-09-03T09:16:01;99751.41;;;24.20;77.91
16525;BME280;8375;33.594;-117.718;2022-09-03T09:18:42;99760.13;;;24.45;76.22
16525;BME280;8375;33.594;-117.718;2022-09-03T09:21:19;99770.44;;;24.54;75.49
16525;BME280;8375;33.594;-117.718;2022-09-03T09:23:51;99758.88;;;24.67;75.17
16525;BME280;8375;33.594;-117.718;2022-09-03T09:26:21;99749.38;;;24.78;74.03
16525;BME280;8375;33.594;-117.718;2022-09-03T09:28:53;99747.59;;;24.90;72.82
16525;BME280;8375;33.594;-117.718;2022-09-03T09:31:23;99739.31;;;24.98;72.03
16525;BME280;8375;33.594;-117.718;2022-09-03T09:33:53;99740.03;;;25.05;70.98
16525;BME280;8375;33.594;-117.718;2022-09-03T09:36:22;99741.63;;;24.95;71.84
16525;BME280;8375;33.594;-117.718;2022-09-03T09:38:51;99750.47;;;24.88;72.12
16525;BME280;8375;33.594;-117.718;2022-09-03T09:41:20;99735.59;;;24.50;74.73
16525;BME280;8375;33.594;-117.718;2022-09-03T09:44:00;99739.44;;;24.36;75.55
16525;BME280;8375;33.594;-117.718;2022-09-03T09:46:34;99735.22;;;24.28;75.24
16525;BME280;8375;33.594;-117.718;2022-09-03T09:49:23;99724.75;;;24.14;76.89
16525;BME280;8375;33.594;-117.718;2022-09-03T09:52:09;99727.09;;;24.04;77.64
16525;BME280;8375;33.594;-117.718;2022-09-03T09:54:39;99739.53;;;24.04;78.70
16525;BME280;8375;33.594;-117.718;2022-09-03T09:57:14;99748.53;;;24.02;78.07
16525;BME280;8375;33.594;-117.718;2022-09-03T09:59:44;99754.34;;;23.86;79.24
16525;BME280;8375;33.594;-117.718;2022-09-03T10:02:15;99750.56;;;23.68;80.64
16525;BME280;8375;33.594;-117.718;2022-09-03T10:04:48;99753.47;;;23.67;79.93
16525;BME280;8375;33.594;-117.718;2022-09-03T10:07:25;99742.47;;;23.63;80.73
16525;BME280;8375;33.594;-117.718;2022-09-03T10:10:02;99746.09;;;23.69;80.48
16525;BME280;8375;33.594;-117.718;2022-09-03T10:12:34;99738.31;;;23.74;80.58
16525;BME280;8375;33.594;-117.718;2022-09-03T10:15:11;99743.97;;;23.78;80.71
16525;BME280;8375;33.594;-117.718;2022-09-03T10:17:54;99747.66;;;23.77;80.90
16525;BME280;8375;33.594;-117.718;2022-09-03T10:20:31;99748.69;;;23.76;81.55
16525;BME280;8375;33.594;-117.718;2022-09-03T10:23:12;99739.94;;;23.75;81.60
16525;BME280;8375;33.594;-117.718;2022-09-03T10:25:49;99735.84;;;23.79;82.46
16525;BME280;8375;33.594;-117.718;2022-09-03T10:28:23;99732.44;;;23.72;83.08
16525;BME280;8375;33.594;-117.718;2022-09-03T10:31:07;99732.25;;;23.67;81.97
16525;BME280;8375;33.594;-117.718;2022-09-03T10:33:46;99721.34;;;23.56;83.90
16525;BME280;8375;33.594;-117.718;2022-09-03T10:36:21;99730.94;;;23.51;83.92
16525;BME280;8375;33.594;-117.718;2022-09-03T10:38:53;99724.09;;;23.43;84.74
16525;BME280;8375;33.594;-117.718;2022-09-03T10:41:36;99713.94;;;23.40;84.78
16525;BME280;8375;33.594;-117.718;2022-09-03T10:44:38;99720.84;;;23.41;85.07
16525;BME280;8375;33.594;-117.718;2022-09-03T10:47:23;99727.75;;;23.42;84.39
16525;BME280;8375;33.594;-117.718;2022-09-03T10:50:02;99733.22;;;23.47;83.55
16525;BME280;8375;33.594;-117.718;2022-09-03T10:52:52;99740.75;;;23.50;84.18
16525;BME280;8375;33.594;-117.718;2022-09-03T10:55:30;99730.56;;;23.47;84.86
16525;BME280;8375;33.594;-117.718;2022-09-03T10:58:22;99730.00;;;23.38;84.96
16525;BME280;8375;33.594;-117.718;2022-09-03T11:01:01;99727.16;;;23.40;84.79
16525;BME280;8375;33.594;-117.718;2022-09-03T11:03:43;99737.53;;;23.41;84.62
16525;BME280;8375;33.594;-117.718;2022-09-03T11:06:19;99731.00;;;23.44;84.12
16525;BME280;8375;33.594;-117.718;2022-09-03T11:08:55;99742.41;;;23.44;83.88
16525;BME280;8375;33.594;-117.718;2022-09-03T11:11:30;99735.72;;;23.42;83.99
16525;BME280;8375;33.594;-117.718;2022-09-03T11:14:05;99729.38;;;23.43;85.38
16525;BME280;8375;33.594;-117.718;2022-09-03T11:16:39;99726.75;;;23.43;85.66
16525;BME280;8375;33.594;-117.718;2022-09-03T11:19:12;99718.81;;;23.36;84.84
16525;BME280;8375;33.594;-117.718;2022-09-03T11:21:43;99723.53;;;23.34;85.28
16525;BME280;8375;33.594;-117.718;2022-09-03T11:24:18;99724.78;;;23.32;85.43
16525;BME280;8375;33.594;-117.718;2022-09-03T11:26:52;99727.00;;;23.35;85.03
16525;BME280;8375;33.594;-117.718;2022-09-03T11:29:30;99723.94;;;23.31;84.89
16525;BME280;8375;33.594;-117.718;2022-09-03T11:32:07;99722.75;;;23.27;85.39
16525;BME280;8375;33.594;-117.718;2022-09-03T11:34:45;99714.22;;;23.25;85.61
16525;BME280;8375;33.594;-117.718;2022-09-03T11:37:19;99722.75;;;23.27;85.35
16525;BME280;8375;33.594;-117.718;2022-09-03T11:40:02;99720.69;;;23.29;85.45
16525;BME280;8375;33.594;-117.718;2022-09-03T11:42:34;99723.16;;;23.31;85.09
16525;BME280;8375;33.594;-117.718;2022-09-03T11:45:20;99720.69;;;23.29;85.08
16525;BME280;8375;33.594;-117.718;2022-09-03T11:47:49;99721.13;;;23.26;85.14
16525;BME280;8375;33.594;-117.718;2022-09-03T11:50:23;99727.25;;;23.26;85.46
16525;BME280;8375;33.594;-117.718;2022-09-03T11:52:54;99724.59;;;23.26;85.58
16525;BME280;8375;33.594;-117.718;2022-09-03T11:55:50;99722.75;;;23.27;85.47
16525;BME280;8375;33.594;-117.718;2022-09-03T11:58:24;99721.13;;;23.26;85.19
16525;BME280;8375;33.594;-117.718;2022-09-03T12:00:54;99714.44;;;23.17;85.99
16525;BME280;8375;33.594;-117.718;2022-09-03T12:03:25;99708.19;;;23.11;86.59
16525;BME280;8375;33.594;-117.718;2022-09-03T12:06:22;99713.03;;;23.14;86.33
16525;BME280;8375;33.594;-117.718;2022-09-03T12:09:10;99718.09;;;23.15;86.18
16525;BME280;8375;33.594;-117.718;2022-09-03T12:11:54;99712.63;;;23.17;86.23
16525;BME280;8375;33.594;-117.718;2022-09-03T12:14:31;99717.47;;;23.20;85.81
16525;BME280;8375;33.594;-117.718;2022-09-03T12:17:18;99720.34;;;23.19;85.72
16525;BME280;8375;33.594;-117.718;2022-09-03T12:19:52;99720.72;;;23.22;85.66
16525;BME280;8375;33.594;-117.718;2022-09-03T12:22:24;99723.81;;;23.19;85.89
16525;BME280;8375;33.594;-117.718;2022-09-03T12:24:53;99730.50;;;23.22;85.86
16525;BME280;8375;33.594;-117.718;2022-09-03T12:27:25;99733.97;;;23.22;86.89
16525;BME280;8375;33.594;-117.718;2022-09-03T12:29:55;99731.31;;;23.22;86.57
16525;BME280;8375;33.594;-117.718;2022-09-03T12:32:27;99730.91;;;23.19;87.80
16525;BME280;8375;33.594;-117.718;2022-09-03T12:35:08;99732.78;;;23.18;87.48
16525;BME280;8375;33.594;-117.718;2022-09-03T12:37:37;99722.78;;;23.20;86.52
16525;BME280;8375;33.594;-117.718;2022-09-03T12:40:16;99726.03;;;23.22;nan
16525;BME280;8375;33.594;-117.718;2022-09-03T12:42:48;99737.63;;;23.21;86.88
16525;BME280;8375;33.594;-117.718;2022-09-03T12:45:19;99740.06;;;23.23;86.57
16525;BME280;8375;33.594;-117.718;2022-09-03T12:47:49;99735.78;;;23.22;86.16
16525;BME280;8375;33.594;-117.718;2022-09-03T12:50:20;99732.53;;;23.20;86.68
16525;BME280;8375;33.594;-117.718;2022-09-03T12:52:51;99729.28;;;23.18;86.85
16525;BME280;8375;33.594;-117.718;2022-09-03T12:55:27;99730.88;;;23.32;87.69
16525;BME280;8375;33.594;-117.718;2022-09-03T12:58:02;99729.06;;;23.58;85.51
16525;BME280;8375;33.594;-117.718;2022-09-03T13:00:33;99733.94;;;23.86;83.52
16525;BME280;8375;33.594;-117.718;2022-09-03T13:03:06;99738.00;;;24.14;81.00
16525;BME280;8375;33.594;-117.718;2022-09-03T13:05:42;99737.56;;;24.36;79.02
16525;BME280;8375;33.594;-117.718;2022-09-03T13:08:16;99740.91;;;24.50;78.78
16525;BME280;8375;33.594;-117.718;2022-09-03T13:10:50;99737.13;;;24.58;77.30
16525;BME280;8375;33.594;-117.718;2022-09-03T13:13:26;99742.13;;;24.66;76.37
16525;BME280;8375;33.594;-117.718;2022-09-03T13:16:19;99747.00;;;24.69;76.62